createdAt,value
2022-07-27T00:01:50.432Z,7.22
2022-07-27T00:04:18.867Z,6.03
2022-07-27T00:06:45.844Z,4.78
2022-07-27T00:09:12.880Z,5.85
2022-07-27T00:11:39.856Z,6.70
2022-07-27T00:14:06.732Z,4.60
2022-07-27T00:16:33.485Z,8.23
2022-07-27T00:19:00.256Z,5.55
2022-07-27T00:21:26.987Z,5.72
2022-07-27T00:23:55.038Z,5.93
2022-07-27T00:26:21.949Z,5.82
2022-07-27T00:28:49.554Z,8.35
2022-07-27T00:31:17.314Z,8.32
2022-07-27T00:33:44.084Z,5.78
2022-07-27T00:36:13.702Z,6.07
2022-07-27T00:38:48.668Z,6.78
2022-07-27T00:41:16.257Z,8.20
2022-07-27T00:43:59.364Z,7.35
2022-07-27T00:46:29.114Z,8.05
2022-07-27T00:48:56.035Z,8.57
2022-07-27T00:51:24.617Z,6.50
2022-07-27T00:53:53.299Z,7.55
2022-07-27T00:56:20.866Z,6.07
2022-07-27T00:58:51.028Z,6.82
2022-07-27T01:01:19.617Z,7.18
2022-07-27T01:03:46.626Z,9.77
2022-07-27T01:06:15.760Z,8.88
2022-07-27T01:08:42.704Z,7.63
2022-07-27T01:11:10.827Z,6.50
2022-07-27T01:13:38.399Z,7.05
2022-07-27T01:16:07.846Z,7.65
2022-07-27T01:18:39.455Z,7.22
2022-07-27T01:21:08.943Z,6.05
2022-07-27T01:23:36.407Z,6.68
2022-07-27T01:26:04.691Z,8.45
2022-07-27T01:28:31.618Z,7.07
2022-07-27T01:30:58.603Z,6.82
2022-07-27T01:33:28.146Z,9.32
2022-07-27T01:35:56.713Z,10.02
2022-07-27T01:38:23.619Z,9.30
2022-07-27T01:40:52.158Z,7.97
2022-07-27T01:43:19.476Z,7.07
2022-07-27T01:45:46.203Z,7.82
2022-07-27T01:48:13.408Z,9.40
2022-07-27T01:50:40.924Z,10.15
2022-07-27T01:53:12.329Z,8.07
2022-07-27T01:55:39.466Z,12.93
2022-07-27T01:58:12.144Z,10.30
2022-07-27T02:00:40.790Z,10.30
2022-07-27T02:03:09.378Z,8.82
2022-07-27T02:05:37.814Z,10.38
2022-07-27T02:08:08.758Z,10.45
2022-07-27T02:10:37.434Z,10.68
2022-07-27T02:13:22.360Z,10.50
2022-07-27T02:15:49.871Z,9.70
2022-07-27T02:18:33.458Z,11.68
2022-07-27T02:21:04.810Z,11.10
2022-07-27T02:23:32.027Z,8.73
2022-07-27T02:25:59.092Z,9.65
2022-07-27T02:28:26.024Z,11.48
2022-07-27T02:30:52.773Z,10.30
2022-07-27T02:33:19.570Z,10.23
2022-07-27T02:35:46.349Z,11.95
2022-07-27T02:38:13.138Z,12.52
2022-07-27T02:40:39.880Z,9.45
2022-07-27T02:43:06.636Z,11.13
2022-07-27T02:45:33.359Z,10.45
2022-07-27T02:48:00.125Z,9.88
2022-07-27T02:50:27.123Z,11.20
2022-07-27T02:52:54.185Z,12.15
2022-07-27T02:55:20.943Z,10.30
2022-07-27T02:57:47.647Z,11.57
2022-07-27T03:00:15.986Z,9.88
2022-07-27T03:02:42.761Z,9.68
2022-07-27T03:05:11.574Z,12.25
2022-07-27T03:07:38.566Z,10.17
2022-07-27T03:10:06.269Z,9.10
2022-07-27T03:12:33.042Z,9.48
2022-07-27T03:14:59.911Z,11.35
2022-07-27T03:17:26.614Z,9.38
2022-07-27T03:19:53.467Z,9.00
2022-07-27T03:22:20.194Z,8.30
2022-07-27T03:24:46.861Z,11.85
2022-07-27T03:27:13.547Z,9.48
2022-07-27T03:29:40.325Z,11.30
2022-07-27T03:32:07.102Z,9.75
2022-07-27T03:34:33.789Z,9.13
2022-07-27T03:37:00.455Z,9.20
2022-07-27T03:39:27.185Z,10.75
2022-07-27T03:41:54.244Z,10.25
2022-07-27T03:44:21.831Z,9.93
2022-07-27T03:46:48.524Z,10.95
2022-07-27T03:49:15.533Z,12.38
2022-07-27T03:51:42.761Z,9.98
2022-07-27T03:54:10.210Z,13.40
2022-07-27T03:56:37.122Z,10.80
2022-07-27T03:59:03.864Z,11.10
2022-07-27T04:01:30.612Z,10.90
2022-07-27T04:03:57.410Z,11.65
2022-07-27T04:06:25.679Z,9.75
2022-07-27T04:08:57.593Z,10.55
2022-07-27T04:11:26.671Z,11.63
2022-07-27T04:16:23.271Z,11.38
2022-07-27T04:18:50.204Z,11.88
2022-07-27T04:21:16.879Z,11.73
2022-07-27T04:23:43.561Z,10.32
2022-07-27T04:26:10.279Z,11.07
2022-07-27T04:28:37.094Z,10.75
2022-07-27T04:31:04.015Z,13.68
2022-07-27T04:33:31.795Z,10.70
2022-07-27T04:35:58.709Z,12.50
2022-07-27T04:38:25.468Z,11.30
2022-07-27T04:40:56.358Z,13.40
2022-07-27T04:43:24.984Z,11.18
2022-07-27T04:45:55.112Z,13.35
2022-07-27T04:48:21.924Z,13.75
2022-07-27T04:50:48.619Z,11.30
2022-07-27T04:53:16.365Z,11.45
2022-07-27T04:55:44.804Z,9.93
2022-07-27T04:58:12.233Z,11.35
2022-07-27T05:00:39.620Z,15.10
2022-07-27T05:03:06.742Z,11.77
2022-07-27T05:05:33.454Z,12.18
2022-07-27T05:08:00.256Z,10.27
2022-07-27T05:10:27.155Z,10.15
2022-07-27T05:12:54.165Z,9.57
2022-07-27T05:15:21.421Z,9.50
2022-07-27T05:17:48.162Z,8.88
2022-07-27T05:20:15.682Z,10.80
2022-07-27T05:22:42.861Z,10.30
2022-07-27T05:25:10.508Z,10.77
2022-07-27T05:27:37.682Z,9.50
2022-07-27T05:30:23.398Z,11.05
2022-07-27T05:32:50.114Z,8.63
2022-07-27T05:35:17.316Z,13.90
2022-07-27T05:37:44.164Z,9.10
2022-07-27T05:40:11.569Z,11.38
2022-07-27T05:42:38.544Z,8.82
2022-07-27T05:45:05.819Z,11.05
2022-07-27T05:47:32.537Z,10.90
2022-07-27T05:49:59.626Z,9.43
2022-07-27T05:52:26.384Z,11.10
2022-07-27T05:54:53.343Z,9.57
2022-07-27T05:57:20.078Z,9.15
2022-07-27T05:59:46.828Z,8.93
2022-07-27T06:02:13.827Z,11.27
2022-07-27T06:04:40.538Z,9.00
2022-07-27T06:07:25.381Z,10.48
2022-07-27T06:09:52.216Z,9.10
2022-07-27T06:12:18.887Z,8.15
2022-07-27T06:14:45.762Z,9.20
2022-07-27T06:17:18.204Z,9.77
2022-07-27T06:19:45.508Z,12.35
2022-07-27T06:22:12.455Z,9.38
2022-07-27T06:24:39.185Z,9.50
2022-07-27T06:27:06.087Z,10.02
2022-07-27T06:29:34.833Z,8.98
2022-07-27T06:32:01.682Z,10.87
2022-07-27T06:34:29.005Z,10.30
2022-07-27T06:36:58.187Z,10.25
2022-07-27T06:39:25.044Z,10.98
2022-07-27T06:41:56.196Z,12.05
2022-07-27T06:44:24.700Z,9.75
2022-07-27T06:46:51.394Z,9.90
2022-07-27T06:49:18.601Z,10.93
2022-07-27T06:51:45.398Z,8.60
2022-07-27T06:54:12.193Z,10.30
2022-07-27T06:56:38.910Z,10.55
2022-07-27T06:59:05.611Z,15.68
2022-07-27T07:01:32.440Z,9.77
2022-07-27T07:03:59.997Z,12.07
2022-07-27T07:06:26.941Z,8.93
2022-07-27T07:08:53.773Z,11.18
2022-07-27T07:11:20.517Z,10.27
2022-07-27T07:13:47.232Z,8.95
2022-07-27T07:16:14.501Z,9.18
2022-07-27T07:18:41.349Z,11.52
2022-07-27T07:21:08.045Z,9.63
2022-07-27T07:23:34.854Z,10.93
2022-07-27T07:26:01.566Z,11.75
2022-07-27T07:28:28.309Z,11.55
2022-07-27T07:30:55.112Z,10.10
2022-07-27T07:33:21.919Z,12.65
2022-07-27T07:36:13.580Z,10.50
2022-07-27T07:38:35.390Z,12.82
2022-07-27T07:41:04.442Z,10.73
2022-07-27T07:43:31.222Z,11.55
2022-07-27T07:45:58.015Z,11.30
2022-07-27T07:48:24.888Z,9.00
2022-07-27T07:50:53.355Z,10.40
2022-07-27T07:53:24.478Z,10.57
2022-07-27T07:55:56.746Z,9.15
2022-07-27T07:58:23.677Z,10.93
2022-07-27T08:00:50.419Z,10.13
2022-07-27T08:03:17.881Z,9.57
2022-07-27T08:05:45.057Z,14.93
2022-07-27T08:08:11.719Z,11.07
2022-07-27T08:10:38.450Z,13.63
2022-07-27T08:13:05.342Z,10.05
2022-07-27T08:15:35.859Z,10.27
2022-07-27T08:18:06.705Z,13.15
2022-07-27T08:20:33.720Z,10.52
2022-07-27T08:23:01.618Z,10.65
2022-07-27T08:25:28.486Z,9.00
2022-07-27T08:27:56.269Z,9.95
2022-07-27T08:30:23.882Z,12.48
2022-07-27T08:33:01.270Z,10.88
2022-07-27T08:35:29.538Z,10.00
2022-07-27T08:37:56.649Z,12.00
2022-07-27T08:43:11.955Z,10.27
2022-07-27T08:45:41.660Z,8.82
2022-07-27T08:48:12.644Z,9.60
2022-07-27T08:50:42.369Z,12.50
2022-07-27T08:53:12.061Z,10.02
2022-07-27T08:55:44.059Z,8.90
2022-07-27T08:58:12.498Z,10.38
2022-07-27T09:00:42.460Z,9.90
2022-07-27T09:03:18.464Z,8.90
2022-07-27T09:05:53.758Z,9.77
2022-07-27T09:08:30.759Z,10.43
2022-07-27T09:10:59.688Z,13.90
2022-07-27T09:13:32.451Z,8.90
2022-07-27T09:16:23.008Z,10.93
2022-07-27T09:18:59.197Z,8.85
2022-07-27T09:21:26.068Z,9.27
2022-07-27T09:23:55.661Z,8.60
2022-07-27T09:26:33.638Z,8.25
2022-07-27T09:29:12.325Z,12.25
2022-07-27T09:31:51.374Z,10.07
2022-07-27T09:34:34.475Z,9.27
2022-07-27T09:37:05.841Z,10.45
2022-07-27T09:39:32.964Z,13.55
2022-07-27T09:42:02.485Z,11.00
2022-07-27T09:44:43.566Z,6.93
2022-07-27T09:47:29.152Z,8.88
2022-07-27T09:50:17.653Z,6.25
2022-07-27T09:52:45.340Z,7.07
2022-07-27T09:55:12.126Z,8.15
2022-07-27T09:57:53.006Z,10.20
2022-07-27T10:00:20.091Z,7.50
2022-07-27T10:02:47.960Z,9.13
2022-07-27T10:05:18.215Z,10.35
2022-07-27T10:07:45.337Z,6.13
2022-07-27T10:10:14.424Z,7.00
2022-07-27T10:12:46.805Z,8.98
2022-07-27T10:15:15.133Z,9.40
2022-07-27T10:17:44.963Z,8.90
2022-07-27T10:20:13.865Z,7.82
2022-07-27T10:23:01.579Z,12.02
2022-07-27T10:25:37.703Z,9.52
2022-07-27T10:28:17.518Z,8.02
2022-07-27T10:30:46.234Z,6.38
2022-07-27T10:33:36.061Z,7.93
2022-07-27T10:36:04.294Z,7.53
2022-07-27T10:38:57.888Z,7.88
2022-07-27T10:41:27.291Z,9.32
2022-07-27T10:46:50.181Z,8.77
2022-07-27T10:49:26.217Z,4.70
2022-07-27T10:51:54.344Z,7.85
2022-07-27T10:54:29.402Z,6.20
2022-07-27T10:56:59.674Z,10.18
2022-07-27T11:00:06.384Z,7.30
2022-07-27T11:02:42.733Z,7.43
2022-07-27T11:05:37.846Z,7.88
2022-07-27T11:08:36.093Z,4.80
2022-07-27T11:10:48.505Z,7.63
2022-07-27T11:13:20.678Z,4.30
2022-07-27T11:16:20.989Z,5.40
2022-07-27T11:19:03.832Z,6.97
2022-07-27T11:21:36.366Z,5.25
2022-07-27T11:24:06.018Z,5.43
2022-07-27T11:26:44.648Z,5.38
2022-07-27T11:29:13.597Z,8.75
2022-07-27T11:31:55.488Z,6.30
2022-07-27T11:34:35.270Z,8.40
2022-07-27T11:37:05.783Z,7.53
2022-07-27T11:40:00.019Z,5.10
2022-07-27T11:42:23.883Z,6.22
2022-07-27T11:44:53.089Z,7.57
2022-07-27T11:47:21.584Z,8.77
2022-07-27T11:49:48.519Z,7.20
2022-07-27T11:52:18.520Z,9.40
2022-07-27T11:54:51.397Z,8.55
2022-07-27T11:57:21.767Z,6.28
2022-07-27T11:59:48.666Z,6.15
2022-07-27T12:02:18.385Z,7.75
2022-07-27T12:04:47.424Z,9.57
2022-07-27T12:07:17.895Z,6.53
2022-07-27T12:09:47.902Z,4.90
2022-07-27T12:12:20.086Z,7.65
2022-07-27T12:14:58.190Z,6.57
2022-07-27T12:17:30.503Z,9.25
2022-07-27T12:20:07.041Z,6.20
2022-07-27T12:22:36.864Z,8.00
2022-07-27T12:25:15.912Z,4.60
2022-07-27T12:28:01.637Z,7.55
2022-07-27T12:30:33.892Z,5.13
2022-07-27T12:33:01.978Z,6.50
2022-07-27T12:35:36.741Z,8.95
2022-07-27T12:38:07.871Z,6.78
2022-07-27T12:40:42.579Z,6.60
2022-07-27T12:43:09.998Z,7.00
2022-07-27T12:45:38.678Z,5.07
2022-07-27T12:48:15.731Z,11.43
2022-07-27T12:50:44.554Z,5.63
2022-07-27T12:53:13.459Z,10.07
2022-07-27T12:55:42.100Z,8.52
2022-07-27T12:58:14.237Z,7.32
2022-07-27T13:00:41.728Z,9.27
2022-07-27T13:03:09.201Z,7.72
2022-07-27T13:05:36.671Z,8.88
2022-07-27T13:08:04.867Z,6.53
2022-07-27T13:10:32.246Z,7.80
2022-07-27T13:12:59.230Z,6.40
2022-07-27T13:15:26.487Z,8.10
2022-07-27T13:17:53.326Z,7.43
2022-07-27T13:20:20.142Z,6.30
2022-07-27T13:22:47.385Z,8.57
2022-07-27T13:25:17.287Z,7.22
2022-07-27T13:27:48.876Z,10.02
2022-07-27T13:30:17.930Z,5.20
2022-07-27T13:32:46.933Z,5.88
2022-07-27T13:37:41.358Z,5.30
2022-07-27T13:40:09.175Z,5.47
2022-07-27T13:42:36.065Z,6.45
2022-07-27T13:45:09.713Z,4.95
2022-07-27T13:47:38.579Z,6.10
2022-07-27T13:50:06.168Z,5.43
2022-07-27T13:52:33.112Z,6.10
2022-07-27T13:54:59.845Z,5.95
2022-07-27T13:57:26.680Z,7.20
2022-07-27T13:59:53.986Z,7.28
2022-07-27T14:02:23.177Z,5.38
2022-07-27T14:04:53.300Z,7.10
2022-07-27T14:07:24.837Z,8.13
2022-07-27T14:10:13.354Z,5.90
2022-07-27T14:12:40.081Z,7.60
2022-07-27T14:15:07.546Z,4.75
2022-07-27T14:17:34.411Z,8.38
2022-07-27T14:20:01.301Z,5.97
2022-07-27T14:22:28.053Z,9.05
2022-07-27T14:24:54.946Z,9.00
2022-07-27T14:27:21.844Z,5.25
2022-07-27T14:29:48.570Z,7.07
2022-07-27T14:32:15.309Z,5.90
2022-07-27T14:34:44.294Z,7.70
2022-07-27T14:37:11.175Z,5.50
2022-07-27T14:39:39.311Z,6.78
2022-07-27T14:42:06.405Z,10.83
2022-07-27T14:44:35.093Z,9.20
2022-07-27T14:47:02.115Z,6.10
2022-07-27T14:49:29.355Z,4.75
2022-07-27T14:51:56.798Z,7.32
2022-07-27T14:54:23.903Z,4.60
2022-07-27T14:56:50.744Z,7.40
2022-07-27T14:59:17.589Z,6.65
2022-07-27T15:01:44.408Z,7.45
2022-07-27T15:04:11.330Z,5.25
2022-07-27T15:06:39.221Z,6.35
2022-07-27T15:09:07.964Z,6.70
2022-07-27T15:11:36.399Z,6.30
2022-07-27T15:14:05.182Z,8.43
2022-07-27T15:16:32.417Z,7.72
2022-07-27T15:19:00.415Z,6.95
2022-07-27T15:21:27.327Z,9.95
2022-07-27T15:23:54.227Z,8.38
2022-07-27T15:26:20.919Z,10.07
2022-07-27T15:28:47.748Z,7.30
2022-07-27T15:31:14.636Z,6.03
2022-07-27T15:33:41.689Z,5.22
2022-07-27T15:36:08.602Z,4.68
2022-07-27T15:38:35.508Z,7.22
2022-07-27T15:41:02.329Z,7.32
2022-07-27T15:43:29.175Z,3.83
2022-07-27T15:45:55.930Z,5.72
2022-07-27T15:48:23.393Z,5.85
2022-07-27T15:50:52.574Z,4.38
2022-07-27T15:53:21.343Z,5.18
2022-07-27T15:55:48.773Z,7.57
2022-07-27T15:58:19.345Z,10.30
2022-07-27T16:00:48.738Z,6.60
2022-07-27T16:03:16.131Z,6.50
2022-07-27T16:05:44.618Z,7.68
2022-07-27T16:08:11.780Z,5.88
2022-07-27T16:10:40.605Z,8.23
2022-07-27T16:13:08.941Z,6.43
2022-07-27T16:15:55.486Z,15.33
2022-07-27T16:18:22.464Z,5.22
2022-07-27T16:20:49.208Z,10.38
2022-07-27T16:23:18.890Z,10.82
2022-07-27T16:26:07.940Z,8.70
2022-07-27T16:28:39.614Z,8.90
2022-07-27T16:31:08.105Z,4.65
2022-07-27T16:33:35.047Z,6.20
2022-07-27T16:36:02.006Z,11.75
2022-07-27T16:38:29.143Z,8.73
2022-07-27T16:40:56.516Z,7.13
2022-07-27T16:43:34.774Z,6.78
2022-07-27T16:46:10.168Z,6.68
2022-07-27T16:48:42.636Z,6.25
2022-07-27T16:51:14.673Z,6.00
2022-07-27T16:53:43.607Z,7.25
2022-07-27T16:56:10.753Z,5.70
2022-07-27T16:58:37.916Z,5.47
2022-07-27T17:01:05.232Z,6.35
2022-07-27T17:03:32.239Z,5.13
2022-07-27T17:06:02.245Z,4.28
2022-07-27T17:08:32.346Z,7.65
2022-07-27T17:11:00.563Z,6.30
2022-07-27T17:13:33.742Z,4.18
2022-07-27T17:16:03.460Z,4.13
2022-07-27T17:18:34.241Z,4.93
2022-07-27T17:21:05.101Z,9.93
2022-07-27T17:23:37.772Z,4.05
2022-07-27T17:26:06.723Z,5.82
2022-07-27T17:28:36.772Z,5.97
2022-07-27T17:31:05.492Z,5.68
2022-07-27T17:33:32.310Z,6.63
2022-07-27T17:35:59.736Z,8.50
2022-07-27T17:38:27.065Z,6.35
2022-07-27T17:40:54.081Z,5.38
2022-07-27T17:43:20.896Z,6.82
2022-07-27T17:45:47.602Z,5.85
2022-07-27T17:48:14.529Z,5.07
2022-07-27T17:50:41.450Z,7.35
2022-07-27T17:53:08.182Z,6.13
2022-07-27T17:55:37.766Z,11.98
2022-07-27T17:58:04.566Z,5.85
2022-07-27T18:00:31.427Z,6.90
2022-07-27T18:02:58.245Z,5.00
2022-07-27T18:05:25.069Z,5.40
2022-07-27T18:07:53.219Z,5.60
2022-07-27T18:10:20.803Z,6.65
2022-07-27T18:12:47.633Z,6.25
2022-07-27T18:15:32.893Z,5.30
2022-07-27T18:17:59.878Z,6.93
2022-07-27T18:20:26.607Z,4.57
2022-07-27T18:22:53.427Z,5.47
2022-07-27T18:25:22.038Z,5.53
2022-07-27T18:27:50.064Z,3.28
2022-07-27T18:30:17.788Z,4.38
2022-07-27T18:32:45.638Z,9.15
2022-07-27T18:35:12.706Z,4.53
2022-07-27T18:37:39.591Z,4.45
2022-07-27T18:40:07.159Z,4.80
2022-07-27T18:42:34.019Z,2.88
2022-07-27T18:45:00.738Z,3.58
2022-07-27T18:47:27.623Z,5.22
2022-07-27T18:49:54.296Z,4.32
2022-07-27T18:52:21.053Z,2.67
2022-07-27T18:54:47.780Z,3.55
2022-07-27T18:57:14.477Z,4.20
2022-07-27T18:59:41.523Z,5.18
2022-07-27T19:02:08.633Z,4.03
2022-07-27T19:04:35.665Z,2.38
2022-07-27T19:07:03.689Z,4.30
2022-07-27T19:09:33.909Z,5.50
2022-07-27T19:12:05.956Z,3.67
2022-07-27T19:14:36.148Z,5.47
2022-07-27T19:17:03.431Z,5.07
2022-07-27T19:19:30.681Z,3.67
2022-07-27T19:21:57.636Z,3.67
2022-07-27T19:24:24.310Z,2.65
2022-07-27T19:26:51.114Z,4.35
2022-07-27T19:29:19.802Z,3.03
2022-07-27T19:31:46.676Z,3.83
2022-07-27T19:34:13.396Z,4.65
2022-07-27T19:36:40.164Z,2.53
2022-07-27T19:39:08.204Z,3.10
2022-07-27T19:41:35.757Z,4.53
2022-07-27T19:44:03.140Z,5.30
2022-07-27T19:46:30.192Z,4.43
2022-07-27T19:48:57.339Z,3.78
2022-07-27T19:51:24.285Z,3.05
2022-07-27T19:53:50.970Z,3.47
2022-07-27T19:56:18.005Z,5.88
2022-07-27T19:58:44.759Z,6.50
2022-07-27T20:01:12.510Z,3.35
2022-07-27T20:03:52.610Z,2.85
2022-07-27T20:06:23.041Z,3.15
2022-07-27T20:08:49.792Z,3.80
2022-07-27T20:11:16.556Z,2.38
2022-07-27T20:13:43.466Z,4.72
2022-07-27T20:16:10.377Z,6.18
2022-07-27T20:18:37.781Z,5.10
2022-07-27T20:21:04.735Z,4.13
2022-07-27T20:23:50.441Z,9.10
2022-07-27T20:26:17.299Z,4.13
2022-07-27T20:28:44.365Z,3.45
2022-07-27T20:31:11.140Z,3.72
2022-07-27T20:33:37.875Z,5.35
2022-07-27T20:36:05.055Z,4.68
2022-07-27T20:38:31.933Z,2.58
2022-07-27T20:40:59.446Z,2.80
2022-07-27T20:43:29.201Z,2.45
2022-07-27T20:45:56.674Z,4.90
2022-07-27T20:48:23.401Z,4.18
2022-07-27T20:50:51.438Z,5.32
2022-07-27T20:53:20.336Z,3.22
2022-07-27T20:55:47.729Z,2.85
2022-07-27T20:58:14.517Z,2.58
2022-07-27T21:00:41.351Z,3.25
2022-07-27T21:03:08.622Z,3.72
2022-07-27T21:05:35.594Z,5.13
2022-07-27T21:08:02.317Z,3.53
2022-07-27T21:10:29.333Z,3.42
2022-07-27T21:12:56.481Z,2.35
2022-07-27T21:15:23.227Z,4.82
2022-07-27T21:18:00.646Z,3.65
2022-07-27T21:20:27.634Z,3.85
2022-07-27T21:23:13.134Z,3.58
2022-07-27T21:25:40.657Z,3.25
2022-07-27T21:28:07.387Z,2.90
2022-07-27T21:30:36.419Z,4.57
2022-07-27T21:33:03.274Z,5.47
2022-07-27T21:35:30.080Z,6.10
2022-07-27T21:37:56.823Z,4.93
2022-07-27T21:40:23.539Z,2.63
2022-07-27T21:42:50.399Z,3.15
2022-07-27T21:45:17.093Z,3.40
2022-07-27T21:47:43.757Z,4.28
2022-07-27T21:50:11.091Z,3.15
2022-07-27T21:52:37.741Z,2.38
2022-07-27T21:55:05.690Z,5.50
2022-07-27T21:57:32.458Z,3.85
2022-07-27T21:59:59.137Z,2.50
2022-07-27T22:02:28.175Z,5.68
2022-07-27T22:04:55.378Z,3.97
2022-07-27T22:07:26.405Z,3.65
2022-07-27T22:09:59.216Z,3.42
2022-07-27T22:12:26.132Z,3.53
2022-07-27T22:14:53.163Z,2.90
2022-07-27T22:17:19.905Z,3.88
2022-07-27T22:19:46.784Z,2.58
2022-07-27T22:22:13.687Z,5.07
2022-07-27T22:24:41.008Z,3.22
2022-07-27T22:27:07.727Z,2.88
2022-07-27T22:29:36.461Z,4.75
2022-07-27T22:32:03.338Z,3.50
2022-07-27T22:34:30.405Z,2.38
2022-07-27T22:36:57.123Z,3.25
2022-07-27T22:39:23.913Z,2.40
2022-07-27T22:41:50.587Z,4.75
2022-07-27T22:44:20.367Z,3.17
2022-07-27T22:46:47.477Z,3.25
2022-07-27T22:49:14.693Z,5.60
2022-07-27T22:51:50.126Z,3.92
2022-07-27T22:54:20.723Z,2.38
2022-07-27T22:56:47.568Z,3.22
2022-07-27T22:59:14.514Z,2.28
2022-07-27T23:01:46.191Z,2.50
2022-07-27T23:04:15.535Z,3.60
2022-07-27T23:06:42.679Z,4.22
2022-07-27T23:09:09.460Z,4.00
2022-07-27T23:11:36.204Z,4.40
2022-07-27T23:14:03.252Z,4.43
2022-07-27T23:16:30.061Z,2.25
2022-07-27T23:18:56.897Z,2.45
2022-07-27T23:21:23.564Z,2.55
2022-07-27T23:23:53.451Z,3.00
2022-07-27T23:26:23.036Z,3.05
2022-07-27T23:28:53.432Z,6.05
2022-07-27T23:31:20.197Z,3.00
2022-07-27T23:33:47.145Z,3.40
2022-07-27T23:36:14.261Z,4.50
2022-07-27T23:38:41.353Z,6.80
2022-07-27T23:41:08.368Z,6.65
2022-07-27T23:43:35.160Z,3.42
2022-07-27T23:46:02.846Z,5.78
2022-07-27T23:48:29.925Z,3.80
2022-07-27T23:50:56.753Z,3.80
2022-07-27T23:53:24.057Z,2.53
2022-07-27T23:55:50.813Z,3.75
2022-07-27T23:58:17.605Z,3.60
